sensor_id;sensor_type;location;lat;lon;timestamp;temperature;humidity
2647;DHT22;1333;50.958;6.770;2023-01-05T00:01:03;12.40;99.90
2647;DHT22;1333;50.958;6.770;2023-01-05T00:03:29;12.40;99.90
2647;DHT22;1333;50.958;6.770;2023-01-05T00:05:59;12.40;99.90
2647;DHT22;1333;50.958;6.770;2023-01-05T00:08:25;12.50;99.90
2647;DHT22;1333;50.958;6.770;2023-01-05T00:10:50;12.40;99.90
2647;DHT22;1333;50.958;6.770;2023-01-05T00:13:34;12.40;99.90
2647;DHT22;1333;50.958;6.770;2023-01-05T00:16:19;12.40;99.90
2647;DHT22;1333;50.958;6.770;2023-01-05T00:19:03;12.30;99.90
2647;DHT22;1333;50.958;6.770;2023-01-05T00:21:47;12.30;99.90
2647;DHT22;1333;50.958;6.770;2023-01-05T00:24:31;12.30;99.90
2647;DHT22;1333;50.958;6.770;2023-01-05T00:26:56;12.20;99.90
2647;DHT22;1333;50.958;6.770;2023-01-05T00:29:22;12.20;99.90
2647;DHT22;1333;50.958;6.770;2023-01-05T00:31:47;12.30;99.90
2647;DHT22;1333;50.958;6.770;2023-01-05T00:34:13;12.30;99.90
2647;DHT22;1333;50.958;6.770;2023-01-05T00:36:39;12.20;99.90
2647;DHT22;1333;50.958;6.770;2023-01-05T00:39:05;12.30;99.90
2647;DHT22;1333;50.958;6.770;2023-01-05T00:41:31;12.20;99.90
2647;DHT22;1333;50.958;6.770;2023-01-05T00:43:56;12.30;99.90
2647;DHT22;1333;50.958;6.770;2023-01-05T00:46:22;12.20;99.90
2647;DHT22;1333;50.958;6.770;2023-01-05T00:48:47;12.20;99.90
2647;DHT22;1333;50.958;6.770;2023-01-05T00:51:13;12.20;99.90
2647;DHT22;1333;50.958;6.770;2023-01-05T00:53:38;12.20;99.90
2647;DHT22;1333;50.958;6.770;2023-01-05T00:56:04;12.20;99.90
2647;DHT22;1333;50.958;6.770;2023-01-05T00:58:29;12.20;99.90
2647;DHT22;1333;50.958;6.770;2023-01-05T01:00:55;12.10;99.90
2647;DHT22;1333;50.958;6.770;2023-01-05T01:03:20;12.10;99.90
2647;DHT22;1333;50.958;6.770;2023-01-05T01:05:55;12.20;99.90
2647;DHT22;1333;50.958;6.770;2023-01-05T01:08:21;12.20;99.90
2647;DHT22;1333;50.958;6.770;2023-01-05T01:10:46;12.20;99.90
2647;DHT22;1333;50.958;6.770;2023-01-05T01:13:12;12.20;99.90
2647;DHT22;1333;50.958;6.770;2023-01-05T01:15:38;12.10;99.90
2647;DHT22;1333;50.958;6.770;2023-01-05T01:18:03;12.10;99.90
2647;DHT22;1333;50.958;6.770;2023-01-05T01:20:29;12.20;99.90
2647;DHT22;1333;50.958;6.770;2023-01-05T01:22:54;12.10;99.90
2647;DHT22;1333;50.958;6.770;2023-01-05T01:25:21;12.10;99.90
2647;DHT22;1333;50.958;6.770;2023-01-05T01:27:47;12.20;99.90
2647;DHT22;1333;50.958;6.770;2023-01-05T01:30:12;12.20;99.90
2647;DHT22;1333;50.958;6.770;2023-01-05T01:32:38;12.20;99.90
2647;DHT22;1333;50.958;6.770;2023-01-05T01:35:04;12.20;99.90
2647;DHT22;1333;50.958;6.770;2023-01-05T01:37:29;12.20;99.90
2647;DHT22;1333;50.958;6.770;2023-01-05T01:39:55;12.10;99.90
2647;DHT22;1333;50.958;6.770;2023-01-05T01:42:21;12.20;99.90
2647;DHT22;1333;50.958;6.770;2023-01-05T01:45:11;12.20;99.90
2647;DHT22;1333;50.958;6.770;2023-01-05T01:47:44;12.20;99.90
2647;DHT22;1333;50.958;6.770;2023-01-05T01:50:17;12.20;99.90
2647;DHT22;1333;50.958;6.770;2023-01-05T01:52:44;12.20;99.90
2647;DHT22;1333;50.958;6.770;2023-01-05T01:55:12;12.20;99.90
2647;DHT22;1333;50.958;6.770;2023-01-05T01:57:38;12.20;99.90
2647;DHT22;1333;50.958;6.770;2023-01-05T02:00:06;12.10;99.90
2647;DHT22;1333;50.958;6.770;2023-01-05T02:02:33;12.20;99.90
2647;DHT22;1333;50.958;6.770;2023-01-05T02:05:02;12.20;99.90
2647;DHT22;1333;50.958;6.770;2023-01-05T02:07:32;12.10;99.90
2647;DHT22;1333;50.958;6.770;2023-01-05T02:09:58;12.10;99.90
2647;DHT22;1333;50.958;6.770;2023-01-05T02:15:27;12.10;99.90
2647;DHT22;1333;50.958;6.770;2023-01-05T02:34:36;12.00;99.90
2647;DHT22;1333;50.958;6.770;2023-01-05T02:37:14;12.00;99.90
2647;DHT22;1333;50.958;6.770;2023-01-05T02:39:41;11.80;99.90
2647;DHT22;1333;50.958;6.770;2023-01-05T02:42:12;11.70;99.90
2647;DHT22;1333;50.958;6.770;2023-01-05T02:44:39;11.70;99.90
2647;DHT22;1333;50.958;6.770;2023-01-05T02:49:58;11.60;99.90
2647;DHT22;1333;50.958;6.770;2023-01-05T02:52:26;11.50;99.90
2647;DHT22;1333;50.958;6.770;2023-01-05T02:54:59;11.40;99.90
2647;DHT22;1333;50.958;6.770;2023-01-05T02:57:31;11.50;99.90
2647;DHT22;1333;50.958;6.770;2023-01-05T03:00:51;11.60;99.90
2647;DHT22;1333;50.958;6.770;2023-01-05T03:06:09;11.50;99.90
2647;DHT22;1333;50.958;6.770;2023-01-05T03:08:39;11.60;99.90
2647;DHT22;1333;50.958;6.770;2023-01-05T03:11:08;11.60;99.90
2647;DHT22;1333;50.958;6.770;2023-01-05T03:14:20;11.60;99.90
2647;DHT22;1333;50.958;6.770;2023-01-05T03:16:44;11.50;99.90
2647;DHT22;1333;50.958;6.770;2023-01-05T03:19:14;11.50;99.90
2647;DHT22;1333;50.958;6.770;2023-01-05T03:22:03;11.50;99.90
2647;DHT22;1333;50.958;6.770;2023-01-05T03:24:49;11.50;99.90
2647;DHT22;1333;50.958;6.770;2023-01-05T03:27:34;11.50;99.90
2647;DHT22;1333;50.958;6.770;2023-01-05T03:30:21;11.50;99.90
2647;DHT22;1333;50.958;6.770;2023-01-05T03:33:13;11.50;99.90
2647;DHT22;1333;50.958;6.770;2023-01-05T03:36:02;11.50;99.90
2647;DHT22;1333;50.958;6.770;2023-01-05T03:38:33;11.50;99.90
2647;DHT22;1333;50.958;6.770;2023-01-05T03:41:01;11.50;99.90
2647;DHT22;1333;50.958;6.770;2023-01-05T03:43:28;11.60;99.90
2647;DHT22;1333;50.958;6.770;2023-01-05T03:45:57;11.50;99.90
2647;DHT22;1333;50.958;6.770;2023-01-05T03:48:24;11.50;99.90
2647;DHT22;1333;50.958;6.770;2023-01-05T03:50:50;11.50;99.90
2647;DHT22;1333;50.958;6.770;2023-01-05T03:53:16;11.60;99.90
2647;DHT22;1333;50.958;6.770;2023-01-05T03:55:42;11.50;99.90
2647;DHT22;1333;50.958;6.770;2023-01-05T03:58:07;11.60;99.90
2647;DHT22;1333;50.958;6.770;2023-01-05T04:00:33;11.60;99.90
2647;DHT22;1333;50.958;6.770;2023-01-05T04:02:59;11.60;99.90
2647;DHT22;1333;50.958;6.770;2023-01-05T04:05:24;11.60;99.90
2647;DHT22;1333;50.958;6.770;2023-01-05T04:07:50;11.70;99.90
2647;DHT22;1333;50.958;6.770;2023-01-05T04:10:16;11.70;99.90
2647;DHT22;1333;50.958;6.770;2023-01-05T04:12:41;11.70;99.90
2647;DHT22;1333;50.958;6.770;2023-01-05T04:15:07;11.80;99.90
2647;DHT22;1333;50.958;6.770;2023-01-05T04:17:33;11.80;99.90
2647;DHT22;1333;50.958;6.770;2023-01-05T04:19:59;11.80;99.90
2647;DHT22;1333;50.958;6.770;2023-01-05T04:22:24;11.80;99.90
2647;DHT22;1333;50.958;6.770;2023-01-05T04:24:50;11.80;99.90
2647;DHT22;1333;50.958;6.770;2023-01-05T04:27:15;11.90;99.90
2647;DHT22;1333;50.958;6.770;2023-01-05T04:29:41;11.90;99.90
2647;DHT22;1333;50.958;6.770;2023-01-05T04:32:06;11.90;99.90
2647;DHT22;1333;50.958;6.770;2023-01-05T04:34:32;11.90;99.90
2647;DHT22;1333;50.958;6.770;2023-01-05T04:36:57;11.90;99.90
2647;DHT22;1333;50.958;6.770;2023-01-05T04:39:23;11.90;99.90
2647;DHT22;1333;50.958;6.770;2023-01-05T04:41:48;11.90;99.90
2647;DHT22;1333;50.958;6.770;2023-01-05T04:44:15;11.90;99.90
2647;DHT22;1333;50.958;6.770;2023-01-05T04:46:40;11.90;99.90
2647;DHT22;1333;50.958;6.770;2023-01-05T04:49:07;11.90;99.90
2647;DHT22;1333;50.958;6.770;2023-01-05T04:51:33;11.90;99.90
2647;DHT22;1333;50.958;6.770;2023-01-05T04:53:59;11.90;99.90
2647;DHT22;1333;50.958;6.770;2023-01-05T04:56:24;11.90;99.90
2647;DHT22;1333;50.958;6.770;2023-01-05T04:58:50;12.00;99.90
2647;DHT22;1333;50.958;6.770;2023-01-05T05:01:15;11.90;99.90
2647;DHT22;1333;50.958;6.770;2023-01-05T05:03:41;11.90;99.90
2647;DHT22;1333;50.958;6.770;2023-01-05T05:06:06;11.80;99.90
2647;DHT22;1333;50.958;6.770;2023-01-05T05:08:32;11.80;99.90
2647;DHT22;1333;50.958;6.770;2023-01-05T05:10:57;11.80;99.90
2647;DHT22;1333;50.958;6.770;2023-01-05T05:13:24;11.80;99.90
2647;DHT22;1333;50.958;6.770;2023-01-05T05:15:49;11.80;99.90
2647;DHT22;1333;50.958;6.770;2023-01-05T05:18:15;11.70;99.90
2647;DHT22;1333;50.958;6.770;2023-01-05T05:20:42;11.60;99.90
2647;DHT22;1333;50.958;6.770;2023-01-05T05:23:08;11.60;99.90
2647;DHT22;1333;50.958;6.770;2023-01-05T05:25:34;11.60;99.90
2647;DHT22;1333;50.958;6.770;2023-01-05T05:27:59;11.60;99.90
2647;DHT22;1333;50.958;6.770;2023-01-05T05:30:25;11.50;99.90
2647;DHT22;1333;50.958;6.770;2023-01-05T05:32:50;11.50;99.90
2647;DHT22;1333;50.958;6.770;2023-01-05T05:35:16;11.50;99.90
2647;DHT22;1333;50.958;6.770;2023-01-05T05:37:41;11.50;99.90
2647;DHT22;1333;50.958;6.770;2023-01-05T05:40:07;11.40;99.90
2647;DHT22;1333;50.958;6.770;2023-01-05T05:42:33;11.40;99.90
2647;DHT22;1333;50.958;6.770;2023-01-05T05:44:58;11.40;99.90
2647;DHT22;1333;50.958;6.770;2023-01-05T05:47:24;11.40;99.90
2647;DHT22;1333;50.958;6.770;2023-01-05T05:49:49;11.40;99.90
2647;DHT22;1333;50.958;6.770;2023-01-05T05:52:15;11.40;99.90
2647;DHT22;1333;50.958;6.770;2023-01-05T05:54:40;11.40;99.90
2647;DHT22;1333;50.958;6.770;2023-01-05T05:57:06;11.50;99.90
2647;DHT22;1333;50.958;6.770;2023-01-05T05:59:31;11.50;99.90
2647;DHT22;1333;50.958;6.770;2023-01-05T06:01:57;11.50;99.90
2647;DHT22;1333;50.958;6.770;2023-01-05T06:04:22;11.40;99.90
2647;DHT22;1333;50.958;6.770;2023-01-05T06:06:48;11.50;99.90
2647;DHT22;1333;50.958;6.770;2023-01-05T06:09:13;11.50;99.90
2647;DHT22;1333;50.958;6.770;2023-01-05T06:11:39;11.40;99.90
2647;DHT22;1333;50.958;6.770;2023-01-05T06:14:04;11.40;99.90
2647;DHT22;1333;50.958;6.770;2023-01-05T06:16:30;11.50;99.90
2647;DHT22;1333;50.958;6.770;2023-01-05T06:18:56;11.40;99.90
2647;DHT22;1333;50.958;6.770;2023-01-05T06:21:22;11.40;99.90
2647;DHT22;1333;50.958;6.770;2023-01-05T06:23:47;11.50;99.90
2647;DHT22;1333;50.958;6.770;2023-01-05T06:26:13;11.50;99.90
2647;DHT22;1333;50.958;6.770;2023-01-05T06:28:39;11.50;99.90
2647;DHT22;1333;50.958;6.770;2023-01-05T06:31:04;11.50;99.90
2647;DHT22;1333;50.958;6.770;2023-01-05T06:33:30;11.60;99.90
2647;DHT22;1333;50.958;6.770;2023-01-05T06:35:56;11.60;99.90
2647;DHT22;1333;50.958;6.770;2023-01-05T06:38:23;11.70;99.90
2647;DHT22;1333;50.958;6.770;2023-01-05T06:40:49;11.70;99.90
2647;DHT22;1333;50.958;6.770;2023-01-05T06:43:14;11.60;99.90
2647;DHT22;1333;50.958;6.770;2023-01-05T06:45:40;11.70;99.90
2647;DHT22;1333;50.958;6.770;2023-01-05T06:48:05;11.70;99.90
2647;DHT22;1333;50.958;6.770;2023-01-05T06:50:31;11.60;99.90
2647;DHT22;1333;50.958;6.770;2023-01-05T06:52:57;11.70;99.90
2647;DHT22;1333;50.958;6.770;2023-01-05T06:55:23;11.60;99.90
2647;DHT22;1333;50.958;6.770;2023-01-05T06:57:49;11.60;99.90
2647;DHT22;1333;50.958;6.770;2023-01-05T07:00:15;11.70;99.90
2647;DHT22;1333;50.958;6.770;2023-01-05T07:02:40;11.60;99.90
2647;DHT22;1333;50.958;6.770;2023-01-05T07:05:07;11.50;99.90
2647;DHT22;1333;50.958;6.770;2023-01-05T07:07:33;11.60;99.90
2647;DHT22;1333;50.958;6.770;2023-01-05T07:09:58;11.60;99.90
2647;DHT22;1333;50.958;6.770;2023-01-05T07:12:24;11.60;99.90
2647;DHT22;1333;50.958;6.770;2023-01-05T07:14:50;11.60;99.90
2647;DHT22;1333;50.958;6.770;2023-01-05T07:17:15;11.70;99.90
2647;DHT22;1333;50.958;6.770;2023-01-05T07:19:41;11.60;99.90
2647;DHT22;1333;50.958;6.770;2023-01-05T07:22:07;11.60;99.90
2647;DHT22;1333;50.958;6.770;2023-01-05T07:24:32;11.60;99.90
2647;DHT22;1333;50.958;6.770;2023-01-05T07:26:58;11.70;99.90
2647;DHT22;1333;50.958;6.770;2023-01-05T07:29:24;11.70;99.90
2647;DHT22;1333;50.958;6.770;2023-01-05T07:31:49;11.70;99.90
2647;DHT22;1333;50.958;6.770;2023-01-05T07:34:17;11.80;99.90
2647;DHT22;1333;50.958;6.770;2023-01-05T07:36:43;11.90;99.90
2647;DHT22;1333;50.958;6.770;2023-01-05T07:39:08;11.80;99.90
2647;DHT22;1333;50.958;6.770;2023-01-05T07:41:34;11.80;99.90
2647;DHT22;1333;50.958;6.770;2023-01-05T07:44:00;11.80;99.90
2647;DHT22;1333;50.958;6.770;2023-01-05T07:46:26;11.80;99.90
2647;DHT22;1333;50.958;6.770;2023-01-05T07:48:52;11.80;99.90
2647;DHT22;1333;50.958;6.770;2023-01-05T07:51:18;11.80;99.90
2647;DHT22;1333;50.958;6.770;2023-01-05T07:53:43;11.80;99.90
2647;DHT22;1333;50.958;6.770;2023-01-05T07:56:10;11.80;99.90
2647;DHT22;1333;50.958;6.770;2023-01-05T07:58:36;11.90;99.90
2647;DHT22;1333;50.958;6.770;2023-01-05T08:01:07;11.90;99.90
2647;DHT22;1333;50.958;6.770;2023-01-05T08:03:33;11.90;99.90
2647;DHT22;1333;50.958;6.770;2023-01-05T08:06:10;11.90;99.90
2647;DHT22;1333;50.958;6.770;2023-01-05T08:08:35;12.00;99.90
2647;DHT22;1333;50.958;6.770;2023-01-05T08:11:05;12.00;99.90
2647;DHT22;1333;50.958;6.770;2023-01-05T08:13:31;12.00;99.90
2647;DHT22;1333;50.958;6.770;2023-01-05T08:16:15;12.00;99.90
2647;DHT22;1333;50.958;6.770;2023-01-05T08:18:40;12.00;99.90
2647;DHT22;1333;50.958;6.770;2023-01-05T08:21:06;11.90;99.90
2647;DHT22;1333;50.958;6.770;2023-01-05T08:23:33;12.00;99.90
2647;DHT22;1333;50.958;6.770;2023-01-05T08:26:06;11.90;99.90
2647;DHT22;1333;50.958;6.770;2023-01-05T08:28:34;12.00;99.90
2647;DHT22;1333;50.958;6.770;2023-01-05T08:31:02;12.00;99.90
2647;DHT22;1333;50.958;6.770;2023-01-05T08:33:28;12.00;99.90
2647;DHT22;1333;50.958;6.770;2023-01-05T08:35:54;12.00;99.90
2647;DHT22;1333;50.958;6.770;2023-01-05T08:38:23;12.00;99.90
2647;DHT22;1333;50.958;6.770;2023-01-05T08:40:49;12.20;99.90
2647;DHT22;1333;50.958;6.770;2023-01-05T08:43:14;12.20;99.90
2647;DHT22;1333;50.958;6.770;2023-01-05T08:45:40;12.20;99.90
2647;DHT22;1333;50.958;6.770;2023-01-05T08:48:06;12.30;99.90
2647;DHT22;1333;50.958;6.770;2023-01-05T08:50:31;12.30;99.90
2647;DHT22;1333;50.958;6.770;2023-01-05T08:52:57;12.30;99.90
2647;DHT22;1333;50.958;6.770;2023-01-05T08:55:23;12.20;99.90
2647;DHT22;1333;50.958;6.770;2023-01-05T08:57:49;12.20;99.90
2647;DHT22;1333;50.958;6.770;2023-01-05T09:00:15;12.40;99.90
2647;DHT22;1333;50.958;6.770;2023-01-05T09:02:46;12.50;99.90
2647;DHT22;1333;50.958;6.770;2023-01-05T09:05:12;12.60;99.90
2647;DHT22;1333;50.958;6.770;2023-01-05T09:07:37;12.80;99.90
2647;DHT22;1333;50.958;6.770;2023-01-05T09:10:04;12.60;99.90
2647;DHT22;1333;50.958;6.770;2023-01-05T09:12:30;12.50;99.90
2647;DHT22;1333;50.958;6.770;2023-01-05T09:14:55;12.60;99.90
2647;DHT22;1333;50.958;6.770;2023-01-05T09:17:21;12.60;99.90
2647;DHT22;1333;50.958;6.770;2023-01-05T09:19:46;12.70;99.90
2647;DHT22;1333;50.958;6.770;2023-01-05T09:22:12;12.80;99.90
2647;DHT22;1333;50.958;6.770;2023-01-05T09:24:37;12.90;99.90
2647;DHT22;1333;50.958;6.770;2023-01-05T09:27:03;13.00;99.90
2647;DHT22;1333;50.958;6.770;2023-01-05T09:29:30;13.20;99.90
2647;DHT22;1333;50.958;6.770;2023-01-05T09:31:55;13.40;99.90
2647;DHT22;1333;50.958;6.770;2023-01-05T09:34:21;13.50;99.90
2647;DHT22;1333;50.958;6.770;2023-01-05T09:36:46;13.40;99.90
2647;DHT22;1333;50.958;6.770;2023-01-05T09:39:12;13.40;99.90
2647;DHT22;1333;50.958;6.770;2023-01-05T09:44:29;13.30;99.90
2647;DHT22;1333;50.958;6.770;2023-01-05T09:46:58;13.30;99.90
2647;DHT22;1333;50.958;6.770;2023-01-05T09:49:25;13.20;99.90
2647;DHT22;1333;50.958;6.770;2023-01-05T09:52:04;13.10;99.90
2647;DHT22;1333;50.958;6.770;2023-01-05T09:54:33;13.10;99.90
2647;DHT22;1333;50.958;6.770;2023-01-05T09:57:00;13.30;99.90
2647;DHT22;1333;50.958;6.770;2023-01-05T09:59:32;13.40;99.90
2647;DHT22;1333;50.958;6.770;2023-01-05T10:02:06;13.50;99.90
2647;DHT22;1333;50.958;6.770;2023-01-05T10:04:39;13.60;99.90
2647;DHT22;1333;50.958;6.770;2023-01-05T10:07:09;13.80;99.90
2647;DHT22;1333;50.958;6.770;2023-01-05T10:09:39;13.80;99.90
2647;DHT22;1333;50.958;6.770;2023-01-05T10:12:16;13.60;99.90
2647;DHT22;1333;50.958;6.770;2023-01-05T10:15:16;13.70;99.90
2647;DHT22;1333;50.958;6.770;2023-01-05T10:17:42;13.80;99.90
2647;DHT22;1333;50.958;6.770;2023-01-05T10:23:24;14.20;99.90
2647;DHT22;1333;50.958;6.770;2023-01-05T10:26:11;14.40;99.90
2647;DHT22;1333;50.958;6.770;2023-01-05T10:31:23;14.40;99.90
2647;DHT22;1333;50.958;6.770;2023-01-05T10:34:03;14.40;99.90
2647;DHT22;1333;50.958;6.770;2023-01-05T10:36:49;14.50;99.90
2647;DHT22;1333;50.958;6.770;2023-01-05T10:41:54;14.60;99.90
2647;DHT22;1333;50.958;6.770;2023-01-05T10:47:08;14.60;99.90
2647;DHT22;1333;50.958;6.770;2023-01-05T10:49:35;14.40;99.90
2647;DHT22;1333;50.958;6.770;2023-01-05T10:52:00;14.50;99.90
2647;DHT22;1333;50.958;6.770;2023-01-05T11:02:24;14.90;99.90
2647;DHT22;1333;50.958;6.770;2023-01-05T11:04:51;15.00;99.90
2647;DHT22;1333;50.958;6.770;2023-01-05T11:07:18;15.10;99.90
2647;DHT22;1333;50.958;6.770;2023-01-05T11:09:47;15.20;99.90
2647;DHT22;1333;50.958;6.770;2023-01-05T11:12:18;15.20;99.90
2647;DHT22;1333;50.958;6.770;2023-01-05T11:14:52;15.00;99.90
2647;DHT22;1333;50.958;6.770;2023-01-05T11:17:21;15.00;99.90
2647;DHT22;1333;50.958;6.770;2023-01-05T11:19:50;14.90;99.90
2647;DHT22;1333;50.958;6.770;2023-01-05T11:22:36;14.90;99.90
2647;DHT22;1333;50.958;6.770;2023-01-05T11:25:23;15.20;99.90
2647;DHT22;1333;50.958;6.770;2023-01-05T11:28:04;15.20;99.90
2647;DHT22;1333;50.958;6.770;2023-01-05T11:30:31;15.30;99.90
2647;DHT22;1333;50.958;6.770;2023-01-05T11:32:58;15.50;99.90
2647;DHT22;1333;50.958;6.770;2023-01-05T11:35:35;15.70;99.90
2647;DHT22;1333;50.958;6.770;2023-01-05T11:38:01;15.90;99.90
2647;DHT22;1333;50.958;6.770;2023-01-05T11:40:29;16.10;99.90
2647;DHT22;1333;50.958;6.770;2023-01-05T11:42:56;17.10;99.90
2647;DHT22;1333;50.958;6.770;2023-01-05T11:45:24;18.80;99.90
2647;DHT22;1333;50.958;6.770;2023-01-05T11:47:58;20.10;99.90
2647;DHT22;1333;50.958;6.770;2023-01-05T11:50:27;20.90;99.90
2647;DHT22;1333;50.958;6.770;2023-01-05T11:52:55;21.40;99.90
2647;DHT22;1333;50.958;6.770;2023-01-05T11:55:30;22.60;99.90
2647;DHT22;1333;50.958;6.770;2023-01-05T12:00:49;23.80;88.60
2647;DHT22;1333;50.958;6.770;2023-01-05T12:05:57;23.70;86.20
2647;DHT22;1333;50.958;6.770;2023-01-05T12:11:17;27.00;79.60
2647;DHT22;1333;50.958;6.770;2023-01-05T12:13:57;28.90;71.30
2647;DHT22;1333;50.958;6.770;2023-01-05T12:16:55;30.40;58.30
2647;DHT22;1333;50.958;6.770;2023-01-05T12:22:24;30.60;49.60
2647;DHT22;1333;50.958;6.770;2023-01-05T12:30:44;28.30;51.20
2647;DHT22;1333;50.958;6.770;2023-01-05T12:36:07;28.80;52.60
2647;DHT22;1333;50.958;6.770;2023-01-05T12:41:50;30.60;51.30
2647;DHT22;1333;50.958;6.770;2023-01-05T12:44:47;30.20;49.30
2647;DHT22;1333;50.958;6.770;2023-01-05T12:49:57;27.10;48.80
2647;DHT22;1333;50.958;6.770;2023-01-05T12:52:25;25.10;51.00
2647;DHT22;1333;50.958;6.770;2023-01-05T12:55:01;24.10;53.80
2647;DHT22;1333;50.958;6.770;2023-01-05T12:57:40;23.20;55.80
2647;DHT22;1333;50.958;6.770;2023-01-05T13:00:09;22.10;57.10
2647;DHT22;1333;50.958;6.770;2023-01-05T13:02:40;20.20;59.20
2647;DHT22;1333;50.958;6.770;2023-01-05T13:05:21;19.40;63.60
2647;DHT22;1333;50.958;6.770;2023-01-05T13:08:04;18.70;69.20
2647;DHT22;1333;50.958;6.770;2023-01-05T13:10:43;18.10;74.40
2647;DHT22;1333;50.958;6.770;2023-01-05T13:13:16;17.90;81.80
2647;DHT22;1333;50.958;6.770;2023-01-05T13:18:17;17.80;91.80
2647;DHT22;1333;50.958;6.770;2023-01-05T13:20:55;17.80;94.60
2647;DHT22;1333;50.958;6.770;2023-01-05T13:23:25;18.10;97.70
2647;DHT22;1333;50.958;6.770;2023-01-05T13:26:16;19.00;97.20
2647;DHT22;1333;50.958;6.770;2023-01-05T13:28:43;19.80;93.30
2647;DHT22;1333;50.958;6.770;2023-01-05T13:34:27;19.10;91.20
2647;DHT22;1333;50.958;6.770;2023-01-05T13:39:53;17.30;94.70
2647;DHT22;1333;50.958;6.770;2023-01-05T13:45:26;16.10;99.90
2647;DHT22;1333;50.958;6.770;2023-01-05T13:53:20;15.10;99.90
2647;DHT22;1333;50.958;6.770;2023-01-05T13:55:57;15.00;99.90
2647;DHT22;1333;50.958;6.770;2023-01-05T13:58:56;14.80;99.90
2647;DHT22;1333;50.958;6.770;2023-01-05T14:01:38;14.20;99.90
2647;DHT22;1333;50.958;6.770;2023-01-05T14:04:13;14.00;99.90
2647;DHT22;1333;50.958;6.770;2023-01-05T14:06:43;13.80;99.90
2647;DHT22;1333;50.958;6.770;2023-01-05T14:09:32;13.80;99.90
2647;DHT22;1333;50.958;6.770;2023-01-05T14:22:58;13.60;99.90
2647;DHT22;1333;50.958;6.770;2023-01-05T14:25:45;13.80;99.90
2647;DHT22;1333;50.958;6.770;2023-01-05T14:41:42;13.40;99.90
2647;DHT22;1333;50.958;6.770;2023-01-05T14:44:20;13.30;99.90
2647;DHT22;1333;50.958;6.770;2023-01-05T14:46:56;13.20;99.90
2647;DHT22;1333;50.958;6.770;2023-01-05T14:52:03;13.20;99.90
2647;DHT22;1333;50.958;6.770;2023-01-05T15:02:36;13.00;99.90
2647;DHT22;1333;50.958;6.770;2023-01-05T15:05:12;13.10;99.90
2647;DHT22;1333;50.958;6.770;2023-01-05T15:07:46;13.20;99.90
2647;DHT22;1333;50.958;6.770;2023-01-05T15:18:10;12.70;99.90
2647;DHT22;1333;50.958;6.770;2023-01-05T15:23:41;12.70;99.90
2647;DHT22;1333;50.958;6.770;2023-01-05T15:29:27;12.70;99.90
2647;DHT22;1333;50.958;6.770;2023-01-05T15:32:10;12.60;99.90
2647;DHT22;1333;50.958;6.770;2023-01-05T15:34:59;12.60;99.90
2647;DHT22;1333;50.958;6.770;2023-01-05T15:37:36;12.60;99.90
2647;DHT22;1333;50.958;6.770;2023-01-05T15:40:24;12.60;99.90
2647;DHT22;1333;50.958;6.770;2023-01-05T15:43:00;12.50;99.90
2647;DHT22;1333;50.958;6.770;2023-01-05T15:45:29;12.40;99.90
2647;DHT22;1333;50.958;6.770;2023-01-05T15:47:57;12.30;99.90
2647;DHT22;1333;50.958;6.770;2023-01-05T15:50:30;12.30;99.90
2647;DHT22;1333;50.958;6.770;2023-01-05T15:52:59;12.30;99.90
2647;DHT22;1333;50.958;6.770;2023-01-05T15:55:27;12.10;99.90
2647;DHT22;1333;50.958;6.770;2023-01-05T15:58:01;12.10;99.90
2647;DHT22;1333;50.958;6.770;2023-01-05T16:00:33;12.10;99.90
2647;DHT22;1333;50.958;6.770;2023-01-05T16:02:59;12.00;99.90
2647;DHT22;1333;50.958;6.770;2023-01-05T16:05:29;12.00;99.90
2647;DHT22;1333;50.958;6.770;2023-01-05T16:08:02;11.90;99.90
2647;DHT22;1333;50.958;6.770;2023-01-05T16:10:59;11.70;99.90
2647;DHT22;1333;50.958;6.770;2023-01-05T16:16:02;11.70;99.90
2647;DHT22;1333;50.958;6.770;2023-01-05T16:18:35;11.60;99.90
2647;DHT22;1333;50.958;6.770;2023-01-05T16:21:14;11.40;99.90
2647;DHT22;1333;50.958;6.770;2023-01-05T16:23:51;11.40;99.90
2647;DHT22;1333;50.958;6.770;2023-01-05T16:26:18;11.30;99.90
2647;DHT22;1333;50.958;6.770;2023-01-05T16:28:44;11.20;99.90
2647;DHT22;1333;50.958;6.770;2023-01-05T16:31:21;11.40;99.90
2647;DHT22;1333;50.958;6.770;2023-01-05T16:34:01;11.40;99.90
2647;DHT22;1333;50.958;6.770;2023-01-05T16:36:26;11.40;99.90
2647;DHT22;1333;50.958;6.770;2023-01-05T16:38:52;11.30;99.90
2647;DHT22;1333;50.958;6.770;2023-01-05T16:41:21;11.30;99.90
2647;DHT22;1333;50.958;6.770;2023-01-05T16:44:00;11.20;99.90
2647;DHT22;1333;50.958;6.770;2023-01-05T16:46:30;11.20;99.90
2647;DHT22;1333;50.958;6.770;2023-01-05T16:48:58;11.10;99.90
2647;DHT22;1333;50.958;6.770;2023-01-05T16:51:35;11.20;99.90
2647;DHT22;1333;50.958;6.770;2023-01-05T16:54:06;11.10;99.90
2647;DHT22;1333;50.958;6.770;2023-01-05T16:59:02;11.00;99.90
2647;DHT22;1333;50.958;6.770;2023-01-05T17:01:36;11.00;99.90
2647;DHT22;1333;50.958;6.770;2023-01-05T17:04:14;10.90;99.90
2647;DHT22;1333;50.958;6.770;2023-01-05T17:06:43;10.90;99.90
2647;DHT22;1333;50.958;6.770;2023-01-05T17:09:30;10.90;99.90
2647;DHT22;1333;50.958;6.770;2023-01-05T17:11:56;10.90;99.90
2647;DHT22;1333;50.958;6.770;2023-01-05T17:14:22;11.00;99.90
2647;DHT22;1333;50.958;6.770;2023-01-05T17:16:48;10.90;99.90
2647;DHT22;1333;50.958;6.770;2023-01-05T17:19:15;10.90;99.90
2647;DHT22;1333;50.958;6.770;2023-01-05T17:21:55;11.00;99.90
2647;DHT22;1333;50.958;6.770;2023-01-05T17:24:21;11.00;99.90
2647;DHT22;1333;50.958;6.770;2023-01-05T17:26:47;11.10;99.90
2647;DHT22;1333;50.958;6.770;2023-01-05T17:29:25;11.20;99.90
2647;DHT22;1333;50.958;6.770;2023-01-05T17:31:51;11.30;99.90
2647;DHT22;1333;50.958;6.770;2023-01-05T17:34:17;11.30;99.90
2647;DHT22;1333;50.958;6.770;2023-01-05T17:36:44;11.40;99.90
2647;DHT22;1333;50.958;6.770;2023-01-05T17:39:14;11.30;99.90
2647;DHT22;1333;50.958;6.770;2023-01-05T17:41:40;11.40;99.90
2647;DHT22;1333;50.958;6.770;2023-01-05T17:44:05;11.30;99.90
2647;DHT22;1333;50.958;6.770;2023-01-05T17:46:32;11.40;99.90
2647;DHT22;1333;50.958;6.770;2023-01-05T17:49:00;11.30;99.90
2647;DHT22;1333;50.958;6.770;2023-01-05T17:51:28;11.40;99.90
2647;DHT22;1333;50.958;6.770;2023-01-05T17:53:55;11.30;99.90
2647;DHT22;1333;50.958;6.770;2023-01-05T17:56:21;11.40;99.90
2647;DHT22;1333;50.958;6.770;2023-01-05T17:58:47;11.40;99.90
2647;DHT22;1333;50.958;6.770;2023-01-05T18:01:12;11.50;99.90
2647;DHT22;1333;50.958;6.770;2023-01-05T18:03:38;11.50;99.90
2647;DHT22;1333;50.958;6.770;2023-01-05T18:06:04;11.30;99.90
2647;DHT22;1333;50.958;6.770;2023-01-05T18:08:29;11.40;99.90
2647;DHT22;1333;50.958;6.770;2023-01-05T18:10:55;11.30;99.90
2647;DHT22;1333;50.958;6.770;2023-01-05T18:13:21;11.30;99.90
2647;DHT22;1333;50.958;6.770;2023-01-05T18:15:47;11.20;99.90
2647;DHT22;1333;50.958;6.770;2023-01-05T18:18:14;11.30;99.90
2647;DHT22;1333;50.958;6.770;2023-01-05T18:20:41;11.40;99.90
2647;DHT22;1333;50.958;6.770;2023-01-05T18:23:08;11.30;99.90
2647;DHT22;1333;50.958;6.770;2023-01-05T18:25:34;11.20;99.90
2647;DHT22;1333;50.958;6.770;2023-01-05T18:28:00;11.20;99.90
2647;DHT22;1333;50.958;6.770;2023-01-05T18:30:28;11.20;99.90
2647;DHT22;1333;50.958;6.770;2023-01-05T18:32:54;11.40;99.90
2647;DHT22;1333;50.958;6.770;2023-01-05T18:35:19;11.30;99.90
2647;DHT22;1333;50.958;6.770;2023-01-05T18:37:45;11.40;99.90
2647;DHT22;1333;50.958;6.770;2023-01-05T18:40:11;11.30;99.90
2647;DHT22;1333;50.958;6.770;2023-01-05T18:42:36;11.20;99.90